createdAt,value
2018-02-14T00:00:30.675Z,-4.75
2018-02-14T00:02:57.349Z,-4.75
2018-02-14T00:05:24.722Z,-4.75
2018-02-14T00:07:52.115Z,-4.73
2018-02-14T00:10:18.791Z,-4.73
2018-02-14T00:12:45.455Z,-4.77
2018-02-14T00:15:12.801Z,-4.83
2018-02-14T00:17:40.212Z,-4.49
2018-02-14T00:20:06.830Z,-4.52
2018-02-14T00:22:33.442Z,-4.61
2018-02-14T00:25:00.076Z,-4.94
2018-02-14T00:27:26.674Z,-5.28
2018-02-14T00:29:53.333Z,-5.35
2018-02-14T00:32:19.948Z,-5.38
2018-02-14T00:34:46.583Z,-5.51
2018-02-14T00:37:13.266Z,-5.53
2018-02-14T00:39:39.881Z,-5.47
2018-02-14T00:42:06.462Z,-5.40
2018-02-14T00:44:33.150Z,-5.43
2018-02-14T00:46:59.778Z,-5.24
2018-02-14T00:49:26.377Z,-5.21
2018-02-14T00:51:53.787Z,-5.41
2018-02-14T00:54:20.395Z,-5.56
2018-02-14T00:56:46.967Z,-5.76
2018-02-14T00:59:13.561Z,-5.77
2018-02-14T01:01:40.246Z,-5.87
2018-02-14T01:04:06.890Z,-5.98
2018-02-14T01:06:33.502Z,-6.00
2018-02-14T01:09:00.177Z,-6.13
2018-02-14T01:11:27.526Z,-6.20
2018-02-14T01:13:54.133Z,-6.27
2018-02-14T01:16:20.711Z,-6.31
2018-02-14T01:18:48.038Z,-6.39
2018-02-14T01:21:14.675Z,-6.37
2018-02-14T01:23:41.295Z,-6.40
2018-02-14T01:26:07.895Z,-6.43
2018-02-14T01:28:34.481Z,-6.39
2018-02-14T01:31:01.117Z,-6.22
2018-02-14T01:33:27.743Z,-6.23
2018-02-14T01:35:54.341Z,-6.38
2018-02-14T01:38:20.954Z,-6.40
2018-02-14T01:40:47.570Z,-6.21
2018-02-14T01:43:14.176Z,-6.08
2018-02-14T01:45:41.603Z,-5.98
2018-02-14T01:48:08.230Z,-6.23
2018-02-14T01:50:38.965Z,-6.09
2018-02-14T01:53:06.354Z,-6.14
2018-02-14T01:55:32.954Z,-6.32
2018-02-14T01:57:59.875Z,-6.35
2018-02-14T02:00:26.534Z,-6.41
2018-02-14T02:02:53.192Z,-6.39
2018-02-14T02:05:19.910Z,-6.45
2018-02-14T02:07:47.263Z,-6.47
2018-02-14T02:10:13.918Z,-6.43
2018-02-14T02:12:40.538Z,-6.48
2018-02-14T02:15:07.102Z,-6.55
2018-02-14T02:17:33.727Z,-6.54
2018-02-14T02:20:00.363Z,-6.58
2018-02-14T02:22:26.998Z,-6.74
2018-02-14T02:24:53.622Z,-6.81
2018-02-14T02:27:20.234Z,-6.97
2018-02-14T02:29:46.852Z,-7.00
2018-02-14T02:32:13.459Z,-7.02
2018-02-14T02:34:40.082Z,-7.09
2018-02-14T02:37:06.702Z,-7.12
2018-02-14T02:39:51.555Z,-7.09
2018-02-14T02:42:19.085Z,-7.17
2018-02-14T02:44:46.459Z,-7.19
2018-02-14T02:47:13.149Z,-7.15
2018-02-14T02:49:39.775Z,-7.12
2018-02-14T02:52:06.455Z,-7.10
2018-02-14T02:54:33.058Z,-6.88
2018-02-14T02:57:00.399Z,-6.59
2018-02-14T02:59:27.766Z,-6.76
2018-02-14T03:01:54.421Z,-6.95
2018-02-14T03:04:21.019Z,-7.00
2018-02-14T03:06:47.669Z,-6.81
2018-02-14T03:09:14.298Z,-6.78
2018-02-14T03:11:41.639Z,-6.99
2018-02-14T03:14:08.582Z,-7.18
2018-02-14T03:16:35.140Z,-7.19
2018-02-14T03:19:01.733Z,-7.23
2018-02-14T03:21:29.103Z,-7.21
2018-02-14T03:23:55.972Z,-7.21
2018-02-14T03:26:22.610Z,-7.24
2018-02-14T03:28:49.952Z,-7.27
2018-02-14T03:31:16.653Z,-7.28
2018-02-14T03:33:43.241Z,-7.36
2018-02-14T03:36:10.582Z,-7.25
2018-02-14T03:38:37.190Z,-7.26
2018-02-14T03:41:03.959Z,-7.46
2018-02-14T03:43:30.615Z,-7.48
2018-02-14T03:45:57.961Z,-7.46
2018-02-14T03:48:24.607Z,-7.57
2018-02-14T03:50:51.944Z,-7.51
2018-02-14T03:53:18.535Z,-7.38
2018-02-14T03:55:45.131Z,-7.36
2018-02-14T03:58:12.487Z,-7.49
2018-02-14T04:00:39.086Z,-7.66
2018-02-14T04:03:06.493Z,-7.85
2018-02-14T04:05:33.086Z,-7.94
2018-02-14T04:07:59.701Z,-7.92
2018-02-14T04:10:26.299Z,-7.88
2018-02-14T04:12:52.909Z,-7.87
2018-02-14T04:15:19.502Z,-7.78
2018-02-14T04:17:46.117Z,-7.73
2018-02-14T04:20:12.690Z,-7.65
2018-02-14T04:22:39.290Z,-7.72
2018-02-14T04:25:05.930Z,-7.79
2018-02-14T04:27:32.703Z,-7.87
2018-02-14T04:29:59.318Z,-7.91
2018-02-14T04:32:25.922Z,-8.10
2018-02-14T04:34:53.246Z,-8.24
2018-02-14T04:37:19.847Z,-8.31
2018-02-14T04:39:46.503Z,-8.40
2018-02-14T04:42:13.131Z,-8.32
2018-02-14T04:44:39.902Z,-8.27
2018-02-14T04:47:06.566Z,-8.26
2018-02-14T04:49:33.896Z,-8.19
2018-02-14T04:52:01.281Z,-8.13
2018-02-14T04:54:27.881Z,-8.10
2018-02-14T04:56:54.536Z,-8.03
2018-02-14T04:59:21.286Z,-8.05
2018-02-14T05:01:48.646Z,-8.02
2018-02-14T05:04:15.237Z,-8.03
2018-02-14T05:06:41.873Z,-8.02
2018-02-14T05:09:08.480Z,-8.00
2018-02-14T05:11:35.133Z,-8.06
2018-02-14T05:14:01.731Z,-8.19
2018-02-14T05:16:28.392Z,-8.26
2018-02-14T05:18:54.985Z,-8.36
2018-02-14T05:21:21.724Z,-8.43
2018-02-14T05:23:48.343Z,-8.42
2018-02-14T05:26:15.723Z,-8.40
2018-02-14T05:28:42.387Z,-8.37
2018-02-14T05:31:09.008Z,-8.24
2018-02-14T05:33:36.399Z,-8.24
2018-02-14T05:36:03.042Z,-8.12
2018-02-14T05:38:29.670Z,-8.00
2018-02-14T05:40:56.311Z,-8.01
2018-02-14T05:43:22.930Z,-7.99
2018-02-14T05:45:49.578Z,-7.85
2018-02-14T05:48:16.150Z,-7.97
2018-02-14T05:50:42.746Z,-8.00
2018-02-14T05:53:09.372Z,-7.92
2018-02-14T05:55:35.996Z,-8.04
2018-02-14T05:58:03.375Z,-8.06
2018-02-14T06:00:30.076Z,-8.10
2018-02-14T06:02:56.695Z,-8.20
2018-02-14T06:05:23.339Z,-8.34
2018-02-14T06:07:49.939Z,-8.40
2018-02-14T06:10:16.566Z,-8.51
2018-02-14T06:12:43.883Z,-8.59
2018-02-14T06:15:11.249Z,-8.69
2018-02-14T06:17:38.624Z,-8.78
2018-02-14T06:20:05.241Z,-8.78
2018-02-14T06:22:31.863Z,-8.84
2018-02-14T06:24:59.256Z,-8.82
2018-02-14T06:27:25.900Z,-8.92
2018-02-14T06:29:52.910Z,-8.95
2018-02-14T06:32:19.586Z,-8.98
2018-02-14T06:34:46.200Z,-8.97
2018-02-14T06:37:13.568Z,-8.87
2018-02-14T06:39:40.218Z,-8.77
2018-02-14T06:42:06.919Z,-8.91
2018-02-14T06:44:33.574Z,-8.88
2018-02-14T06:47:00.330Z,-8.89
2018-02-14T06:49:26.933Z,-8.92
2018-02-14T06:51:53.637Z,-8.89
2018-02-14T06:54:20.249Z,-8.85
2018-02-14T06:56:46.859Z,-8.81
2018-02-14T06:59:14.251Z,-8.71
2018-02-14T07:01:40.923Z,-8.75
2018-02-14T07:04:07.522Z,-8.65
2018-02-14T07:06:34.218Z,-8.63
2018-02-14T07:09:01.729Z,-8.61
2018-02-14T07:11:28.387Z,-8.46
2018-02-14T07:13:55.106Z,-8.31
2018-02-14T07:16:22.158Z,-8.09
2018-02-14T07:18:48.905Z,-8.00
2018-02-14T07:21:15.690Z,-7.90
2018-02-14T07:23:42.468Z,-7.99
2018-02-14T07:26:09.123Z,-7.78
2018-02-14T07:28:35.795Z,-7.92
2018-02-14T07:31:02.397Z,-7.87
2018-02-14T07:33:29.049Z,-7.48
2018-02-14T07:35:55.678Z,-6.97
2018-02-14T07:38:22.293Z,-6.65
2018-02-14T07:40:48.974Z,-5.86
2018-02-14T07:43:15.642Z,-4.94
2018-02-14T07:45:43.022Z,-4.11
2018-02-14T07:48:09.671Z,-3.85
2018-02-14T07:50:37.062Z,-3.84
2018-02-14T07:53:03.724Z,-3.58
2018-02-14T07:55:30.369Z,-3.50
2018-02-14T07:57:56.978Z,-3.29
2018-02-14T08:00:24.334Z,-3.07
2018-02-14T08:02:50.978Z,-2.53
2018-02-14T08:05:17.567Z,-2.24
2018-02-14T08:07:44.152Z,-2.00
2018-02-14T08:10:10.827Z,-1.22
2018-02-14T08:12:37.426Z,-0.75
2018-02-14T08:15:04.803Z,-0.50
2018-02-14T08:17:31.430Z,-0.13
2018-02-14T08:19:58.764Z,1.03
2018-02-14T08:22:25.388Z,2.35
2018-02-14T08:24:52.011Z,3.57
2018-02-14T08:27:18.655Z,5.86
2018-02-14T08:29:45.236Z,7.55
2018-02-14T08:32:11.907Z,8.67
2018-02-14T08:34:38.592Z,8.78
2018-02-14T08:37:05.354Z,9.09
2018-02-14T08:39:32.728Z,7.90
2018-02-14T08:41:59.496Z,8.20
2018-02-14T08:44:26.071Z,8.17
2018-02-14T08:46:52.693Z,8.91
2018-02-14T08:49:19.307Z,9.24
2018-02-14T08:51:45.910Z,10.27
2018-02-14T08:54:13.260Z,11.36
2018-02-14T08:56:39.830Z,11.36
2018-02-14T08:59:06.434Z,12.06
2018-02-14T09:01:32.991Z,13.87
2018-02-14T09:03:59.610Z,15.10
2018-02-14T09:06:26.188Z,15.42
2018-02-14T09:08:52.797Z,16.68
2018-02-14T09:11:19.386Z,17.48
2018-02-14T09:13:46.714Z,18.62
2018-02-14T09:16:15.088Z,19.50
2018-02-14T09:18:41.706Z,20.09
2018-02-14T09:21:08.317Z,21.10
2018-02-14T09:23:34.951Z,21.75
2018-02-14T09:26:02.311Z,22.05
2018-02-14T09:28:28.995Z,22.97
2018-02-14T09:30:55.612Z,22.80
2018-02-14T09:33:22.208Z,23.54
2018-02-14T09:35:49.650Z,23.74
2018-02-14T09:38:16.223Z,24.05
2018-02-14T09:40:42.859Z,24.82
2018-02-14T09:43:09.462Z,24.82
2018-02-14T09:45:36.074Z,24.75
2018-02-14T09:48:02.725Z,24.76
2018-02-14T09:50:29.330Z,25.17
2018-02-14T09:52:56.274Z,25.76
2018-02-14T09:55:22.937Z,26.33
2018-02-14T09:57:49.513Z,26.49
2018-02-14T10:00:16.168Z,26.01
2018-02-14T10:02:42.783Z,26.06
2018-02-14T10:05:10.179Z,26.50
2018-02-14T10:07:36.741Z,26.70
2018-02-14T10:10:03.335Z,25.80
2018-02-14T10:12:30.066Z,25.54
2018-02-14T10:14:57.402Z,26.69
2018-02-14T10:17:24.727Z,26.22
2018-02-14T10:19:52.121Z,25.32
2018-02-14T10:22:19.459Z,24.07
2018-02-14T10:24:46.077Z,22.78
2018-02-14T10:27:12.646Z,22.51
2018-02-14T10:29:40.233Z,22.00
2018-02-14T10:32:06.843Z,20.84
2018-02-14T10:34:34.195Z,21.02
2018-02-14T10:37:01.535Z,21.03
2018-02-14T10:39:28.110Z,21.59
2018-02-14T10:41:54.806Z,21.47
2018-02-14T10:44:21.437Z,20.93
2018-02-14T10:46:48.050Z,21.05
2018-02-14T10:49:14.653Z,19.77
2018-02-14T10:51:41.262Z,20.01
2018-02-14T10:54:07.922Z,20.45
2018-02-14T10:56:34.532Z,19.58
2018-02-14T10:59:01.145Z,19.32
2018-02-14T11:01:33.755Z,20.01
2018-02-14T11:06:53.745Z,20.67
2018-02-14T11:09:20.333Z,20.20
2018-02-14T11:11:46.991Z,20.47
2018-02-14T11:14:13.710Z,19.50
2018-02-14T11:16:40.310Z,18.39
2018-02-14T11:19:06.982Z,17.00
2018-02-14T11:21:33.618Z,15.22
2018-02-14T11:24:00.203Z,14.28
2018-02-14T11:26:26.830Z,13.67
2018-02-14T11:28:53.425Z,13.34
2018-02-14T11:31:20.124Z,12.82
2018-02-14T11:33:46.786Z,12.23
2018-02-14T11:36:13.375Z,11.81
2018-02-14T11:38:39.994Z,11.93
2018-02-14T11:41:06.596Z,11.22
2018-02-14T11:43:33.200Z,11.50
2018-02-14T11:45:59.837Z,11.36
2018-02-14T11:48:26.450Z,10.96
2018-02-14T11:50:53.038Z,10.43
2018-02-14T11:53:19.723Z,10.05
2018-02-14T11:55:46.317Z,9.54
2018-02-14T11:58:12.950Z,9.18
2018-02-14T12:00:39.645Z,8.96
2018-02-14T12:03:06.385Z,8.98
2018-02-14T12:05:32.951Z,8.98
2018-02-14T12:08:00.321Z,8.76
2018-02-14T12:10:27.650Z,8.19
2018-02-14T12:12:54.319Z,8.04
2018-02-14T12:15:20.950Z,8.08
2018-02-14T12:17:48.298Z,7.87
2018-02-14T12:20:14.954Z,7.78
2018-02-14T12:22:41.571Z,7.64
2018-02-14T12:25:09.067Z,7.49
2018-02-14T12:27:35.783Z,7.31
2018-02-14T12:30:02.523Z,6.97
2018-02-14T12:32:29.112Z,6.69
2018-02-14T12:34:55.687Z,6.80
2018-02-14T12:37:23.178Z,6.75
2018-02-14T12:39:49.795Z,6.51
2018-02-14T12:42:16.414Z,6.58
2018-02-14T12:44:43.048Z,6.19
2018-02-14T12:47:09.640Z,5.84
2018-02-14T12:49:36.296Z,5.69
2018-02-14T12:52:02.928Z,5.64
2018-02-14T12:54:30.317Z,5.65
2018-02-14T12:56:57.716Z,5.69
2018-02-14T12:59:24.373Z,5.51
2018-02-14T13:01:51.119Z,5.56
2018-02-14T13:04:17.754Z,5.38
2018-02-14T13:06:44.374Z,5.02
2018-02-14T13:09:11.020Z,5.12
2018-02-14T13:11:37.792Z,4.98
2018-02-14T13:14:04.370Z,4.80
2018-02-14T13:16:30.988Z,4.71
2018-02-14T13:18:58.343Z,4.85
2018-02-14T13:21:25.702Z,4.91
2018-02-14T13:23:52.313Z,4.85
2018-02-14T13:26:18.978Z,4.69
2018-02-14T13:28:45.626Z,4.57
2018-02-14T13:31:12.258Z,4.58
2018-02-14T13:33:38.858Z,4.55
2018-02-14T13:36:05.492Z,4.23
2018-02-14T13:38:32.095Z,4.19
2018-02-14T13:40:58.669Z,4.19
2018-02-14T13:43:26.055Z,4.12
2018-02-14T13:45:53.419Z,4.18
2018-02-14T13:48:21.156Z,4.12
2018-02-14T13:50:48.496Z,4.15
2018-02-14T13:53:15.913Z,4.11
2018-02-14T13:55:42.539Z,4.06
2018-02-14T13:58:09.113Z,4.00
2018-02-14T14:00:35.812Z,3.92
2018-02-14T14:03:02.430Z,3.86
2018-02-14T14:05:29.857Z,3.67
2018-02-14T14:07:56.559Z,3.60
2018-02-14T14:10:23.199Z,3.67
2018-02-14T14:12:49.799Z,3.79
2018-02-14T14:15:16.459Z,3.73
2018-02-14T14:17:43.114Z,3.75
2018-02-14T14:20:09.738Z,3.65
2018-02-14T14:22:37.170Z,3.56
2018-02-14T14:25:04.491Z,3.55
2018-02-14T14:27:31.082Z,3.47
2018-02-14T14:29:57.686Z,3.47
2018-02-14T14:32:24.290Z,3.55
2018-02-14T14:34:50.866Z,3.41
2018-02-14T14:37:17.558Z,3.50
2018-02-14T14:39:44.168Z,3.45
2018-02-14T14:42:10.851Z,3.33
2018-02-14T14:44:37.419Z,3.24
2018-02-14T14:47:04.739Z,3.26
2018-02-14T14:49:31.557Z,3.26
2018-02-14T14:51:58.170Z,3.28
2018-02-14T14:54:24.740Z,3.34
2018-02-14T14:56:51.394Z,3.23
2018-02-14T14:59:17.984Z,3.33
2018-02-14T15:01:44.582Z,3.32
2018-02-14T15:04:11.934Z,3.45
2018-02-14T15:06:38.542Z,3.41
2018-02-14T15:09:05.149Z,3.30
2018-02-14T15:11:31.734Z,3.37
2018-02-14T15:13:58.362Z,3.31
2018-02-14T15:16:25.026Z,3.33
2018-02-14T15:18:51.617Z,3.27
2018-02-14T15:21:18.207Z,3.22
2018-02-14T15:23:44.824Z,3.20
2018-02-14T15:26:12.243Z,3.20
2018-02-14T15:28:38.968Z,3.14
2018-02-14T15:31:05.582Z,3.10
2018-02-14T15:33:32.914Z,3.06
2018-02-14T15:35:59.555Z,3.01
2018-02-14T15:38:26.162Z,2.96
2018-02-14T15:40:52.890Z,2.98
2018-02-14T15:43:19.501Z,2.97
2018-02-14T15:45:46.103Z,2.99
2018-02-14T15:48:12.700Z,2.99
2018-02-14T15:50:39.309Z,2.99
2018-02-14T15:53:05.904Z,2.90
2018-02-14T15:55:32.503Z,2.91
2018-02-14T15:57:59.125Z,2.88
2018-02-14T16:00:25.718Z,2.89
2018-02-14T16:02:52.343Z,2.92
2018-02-14T16:05:18.943Z,3.19
2018-02-14T16:07:45.541Z,3.02
2018-02-14T16:10:12.956Z,3.06
2018-02-14T16:12:39.600Z,2.90
2018-02-14T16:15:06.228Z,2.89
2018-02-14T16:17:32.885Z,2.61
2018-02-14T16:19:59.464Z,2.60
2018-02-14T16:22:26.846Z,2.70
2018-02-14T16:24:53.427Z,2.51
2018-02-14T16:27:20.022Z,2.36
2018-02-14T16:29:46.610Z,2.23
2018-02-14T16:32:14.030Z,2.17
2018-02-14T16:34:40.645Z,2.01
2018-02-14T16:37:07.267Z,2.20
2018-02-14T16:39:33.907Z,2.35
2018-02-14T16:42:00.525Z,2.33
2018-02-14T16:44:27.851Z,2.08
2018-02-14T16:46:54.591Z,2.19
2018-02-14T16:49:22.675Z,1.99
2018-02-14T16:51:50.019Z,1.86
2018-02-14T16:54:16.625Z,1.60
2018-02-14T16:56:43.209Z,1.67
2018-02-14T16:59:10.553Z,1.61
2018-02-14T17:01:37.881Z,1.58
2018-02-14T17:04:04.522Z,1.51
2018-02-14T17:06:31.155Z,1.48
2018-02-14T17:08:57.790Z,1.24
2018-02-14T17:11:24.366Z,1.22
2018-02-14T17:13:51.981Z,1.16
2018-02-14T17:16:18.637Z,1.03
2018-02-14T17:18:45.243Z,0.93
2018-02-14T17:21:11.853Z,0.74
2018-02-14T17:23:39.190Z,0.68
2018-02-14T17:26:06.614Z,0.57
2018-02-14T17:28:33.254Z,0.50
2018-02-14T17:30:59.912Z,0.52
2018-02-14T17:33:26.506Z,0.37
2018-02-14T17:35:53.116Z,0.29
2018-02-14T17:38:19.708Z,0.16
2018-02-14T17:40:46.336Z,0.13
2018-02-14T17:43:12.981Z,0.12
2018-02-14T17:45:39.574Z,-0.02
2018-02-14T17:48:06.175Z,-0.05
2018-02-14T17:50:32.820Z,-0.08
2018-02-14T17:53:00.169Z,-0.14
2018-02-14T17:55:27.502Z,-0.11
2018-02-14T17:57:54.110Z,-0.17
2018-02-14T18:00:20.768Z,-0.18
2018-02-14T18:02:47.373Z,-0.26
2018-02-14T18:05:13.974Z,-0.32
2018-02-14T18:07:41.330Z,-0.41
2018-02-14T18:10:08.000Z,-0.47
2018-02-14T18:12:34.645Z,-0.49
2018-02-14T18:15:01.241Z,-0.55
2018-02-14T18:17:27.892Z,-0.57
2018-02-14T18:19:55.270Z,-0.66
2018-02-14T18:22:21.877Z,-0.74
2018-02-14T18:24:49.244Z,-0.74
2018-02-14T18:27:15.835Z,-0.73
2018-02-14T18:29:42.446Z,-0.76
2018-02-14T18:32:09.060Z,-0.81
2018-02-14T18:34:35.651Z,-0.85
2018-02-14T18:37:02.314Z,-0.89
2018-02-14T18:39:29.631Z,-0.90
2018-02-14T18:41:56.285Z,-0.90
2018-02-14T18:44:22.878Z,-0.94
2018-02-14T18:46:49.486Z,-1.02
2018-02-14T18:49:16.126Z,-1.16
2018-02-14T18:51:43.026Z,-1.20
2018-02-14T18:54:09.646Z,-1.19
2018-02-14T18:56:36.252Z,-1.17
2018-02-14T18:59:03.631Z,-1.14
2018-02-14T19:01:30.250Z,-1.13
2018-02-14T19:03:56.882Z,-1.14
2018-02-14T19:06:23.501Z,-1.18
2018-02-14T19:08:50.102Z,-1.18
2018-02-14T19:11:17.036Z,-1.21
2018-02-14T19:13:43.720Z,-1.21
2018-02-14T19:16:10.364Z,-1.19
2018-02-14T19:18:36.986Z,-1.17
2018-02-14T19:21:04.712Z,-1.31
2018-02-14T19:23:32.302Z,-1.35
2018-02-14T19:25:58.917Z,-1.33
2018-02-14T19:28:25.531Z,-1.33
2018-02-14T19:30:52.231Z,-1.32
2018-02-14T19:33:18.862Z,-1.19
2018-02-14T19:35:46.250Z,-1.14
2018-02-14T19:38:12.950Z,-1.26
2018-02-14T19:40:39.601Z,-1.17
2018-02-14T19:43:06.476Z,-1.23
2018-02-14T19:45:33.122Z,-1.17
2018-02-14T19:47:59.756Z,-1.21
2018-02-14T19:50:26.482Z,-1.22
2018-02-14T19:52:53.117Z,-1.27
2018-02-14T19:55:19.766Z,-1.24
2018-02-14T19:57:46.393Z,-1.37
2018-02-14T20:00:13.064Z,-1.39
2018-02-14T20:02:39.726Z,-1.45
2018-02-14T20:05:06.517Z,-1.42
2018-02-14T20:07:33.157Z,-1.49
2018-02-14T20:09:59.772Z,-1.51
2018-02-14T20:12:27.254Z,-1.58
2018-02-14T20:14:53.992Z,-1.60
2018-02-14T20:17:20.639Z,-1.60
2018-02-14T20:19:47.256Z,-1.58
2018-02-14T20:22:13.926Z,-1.60
2018-02-14T20:24:40.600Z,-1.61
2018-02-14T20:27:07.989Z,-1.60
2018-02-14T20:29:34.610Z,-1.56
2018-02-14T20:32:02.219Z,-1.61
2018-02-14T20:34:28.967Z,-1.64
2018-02-14T20:36:56.336Z,-1.62
2018-02-14T20:39:23.058Z,-1.73
2018-02-14T20:41:49.685Z,-1.65
2018-02-14T20:44:16.310Z,-1.64
2018-02-14T20:46:42.958Z,-1.62
2018-02-14T20:49:09.587Z,-1.66
2018-02-14T20:51:36.210Z,-1.61
2018-02-14T20:54:02.818Z,-1.63
2018-02-14T20:56:30.171Z,-1.67
2018-02-14T20:58:56.782Z,-1.79
2018-02-14T21:01:23.423Z,-2.00
2018-02-14T21:03:50.010Z,-2.06
2018-02-14T21:06:16.638Z,-2.06
2018-02-14T21:08:43.284Z,-2.14
2018-02-14T21:11:09.908Z,-2.21
2018-02-14T21:13:37.222Z,-2.17
2018-02-14T21:16:03.842Z,-2.18
2018-02-14T21:18:30.832Z,-2.25
2018-02-14T21:20:58.217Z,-2.30
2018-02-14T21:23:24.837Z,-2.27
2018-02-14T21:25:51.502Z,-2.26
2018-02-14T21:28:18.126Z,-2.26
2018-02-14T21:30:44.746Z,-2.23
2018-02-14T21:33:11.346Z,-2.17
2018-02-14T21:35:37.966Z,-2.19
2018-02-14T21:38:04.665Z,-2.16
2018-02-14T21:40:32.015Z,-2.14
2018-02-14T21:42:58.687Z,-2.19
2018-02-14T21:45:25.327Z,-2.22
2018-02-14T21:47:52.194Z,-2.13
2018-02-14T21:50:19.577Z,-2.20
2018-02-14T21:52:46.973Z,-2.14
2018-02-14T21:55:13.631Z,-2.14
2018-02-14T21:57:40.246Z,-2.11
2018-02-14T22:00:06.858Z,-2.11
2018-02-14T22:02:33.449Z,-2.01
2018-02-14T22:05:00.099Z,-2.02
2018-02-14T22:07:26.678Z,-2.04
2018-02-14T22:09:53.384Z,-2.07
2018-02-14T22:12:19.962Z,-2.17
2018-02-14T22:14:46.538Z,-2.31
2018-02-14T22:17:13.232Z,-2.41
2018-02-14T22:19:39.863Z,-2.44
2018-02-14T22:22:06.532Z,-2.50
2018-02-14T22:24:33.109Z,-2.45
2018-02-14T22:26:59.702Z,-2.46
2018-02-14T22:29:27.095Z,-2.42
2018-02-14T22:31:53.741Z,-2.48
2018-02-14T22:34:20.402Z,-2.55
2018-02-14T22:36:47.798Z,-2.50
2018-02-14T22:39:14.403Z,-2.47
2018-02-14T22:41:41.090Z,-2.48
2018-02-14T22:44:07.689Z,-2.44
2018-02-14T22:46:34.275Z,-2.46
2018-02-14T22:49:01.683Z,-2.44
2018-02-14T22:51:28.280Z,-2.40
2018-02-14T22:53:54.919Z,-2.33
2018-02-14T22:56:21.644Z,-2.30
2018-02-14T22:58:48.306Z,-2.27
2018-02-14T23:01:14.937Z,-2.24
2018-02-14T23:03:41.577Z,-2.26
2018-02-14T23:06:08.932Z,-2.20
2018-02-14T23:08:35.539Z,-2.23
2018-02-14T23:11:02.146Z,-2.25
2018-02-14T23:13:28.762Z,-2.29
2018-02-14T23:15:55.386Z,-2.32
2018-02-14T23:18:22.007Z,-2.29
2018-02-14T23:20:48.589Z,-2.23
2018-02-14T23:23:15.199Z,-2.15
2018-02-14T23:25:41.800Z,-2.13
2018-02-14T23:28:08.423Z,-2.06
2018-02-14T23:30:35.072Z,-2.08
2018-02-14T23:33:01.674Z,-2.05
2018-02-14T23:35:28.302Z,-1.94
2018-02-14T23:37:54.927Z,-1.88
2018-02-14T23:40:22.339Z,-1.95
2018-02-14T23:42:48.963Z,-2.06
2018-02-14T23:45:15.578Z,-2.04
2018-02-14T23:47:42.198Z,-2.12
2018-02-14T23:50:08.810Z,-2.09
2018-02-14T23:52:36.239Z,-2.15
2018-02-14T23:55:02.865Z,-2.04
2018-02-14T23:57:29.442Z,-2.05
2018-02-14T23:59:56.797Z,-2.05
